Time;durP1;ratioP1;P1;durP2;ratioP2;P2;SDS_P1;SDS_P2;PMS_P1;PMS_P2;Temp;Humidity;BMP_temperature;BMP_pressure;BME280_temperature;BME280_humidity;BME280_pressure;Samples;Min_cycle;Max_cycle;Signal;HPM_P1;HPM_P2
2023/06/27 00:00:37;;;;;;;1999.90;999.90;;;15.00;99.90;;;;;;5071336;28;20068;-84
2023/06/27 00:03:03;;;;;;;1999.90;999.90;;;14.90;99.90;;;;;;5072945;28;20095;-84
2023/06/27 00:05:30;;;;;;;1999.90;999.90;;;15.10;99.90;;;;;;5064571;28;20083;-84
2023/06/27 00:07:56;;;;;;;1999.90;999.90;;;15.00;99.90;;;;;;5072969;28;20044;-84
2023/06/27 00:10:22;;;;;;;1999.90;999.90;;;15.00;99.90;;;;;;5072544;28;20059;-84
2023/06/27 00:12:47;;;;;;;1999.90;999.90;;;15.00;99.90;;;;;;5074063;28;20052;-83
2023/06/27 00:15:13;;;;;;;1999.90;999.90;;;15.00;99.90;;;;;;5070713;28;20048;-84
2023/06/27 00:17:40;;;;;;;1999.90;999.90;;;15.00;99.90;;;;;;5073890;28;20377;-86
2023/06/27 00:20:09;;;;;;;1999.90;999.90;;;15.00;99.90;;;;;;5068366;28;20040;-84
2023/06/27 00:22:39;;;;;;;1999.90;999.90;;;15.00;99.90;;;;;;5069736;28;20493;-84
2023/06/27 00:25:06;;;;;;;1999.90;999.90;;;15.00;99.90;;;;;;5070142;28;20123;-85
2023/06/27 00:27:33;;;;;;;1999.90;999.90;;;14.90;99.90;;;;;;5071477;28;20048;-83
2023/06/27 00:29:59;;;;;;;1999.90;999.90;;;14.90;99.90;;;;;;5072600;28;20048;-87
2023/06/27 00:32:24;;;;;;;1999.90;999.90;;;14.90;99.90;;;;;;5073689;28;20185;-83
2023/06/27 00:34:50;;;;;;;1999.90;999.90;;;14.80;99.90;;;;;;5074083;28;20486;-82
2023/06/27 00:37:16;;;;;;;1999.90;999.90;;;14.90;99.90;;;;;;5071398;28;20048;-82
2023/06/27 00:39:42;;;;;;;1999.90;999.90;;;14.80;99.90;;;;;;5069398;28;20496;-83
2023/06/27 00:42:07;;;;;;;1999.90;999.90;;;14.80;99.90;;;;;;5055474;28;20095;-83
2023/06/27 00:44:33;;;;;;;1999.90;999.90;;;14.80;99.90;;;;;;5088666;28;20052;-83
2023/06/27 00:47:00;;;;;;;1999.90;999.90;;;14.80;99.90;;;;;;5072594;28;20064;-82
2023/06/27 00:49:25;;;;;;;1999.90;999.90;;;14.80;99.90;;;;;;5071897;28;20044;-83
2023/06/27 00:51:53;;;;;;;1999.90;999.90;;;14.70;99.90;;;;;;5071696;28;20496;-82
2023/06/27 00:54:19;;;;;;;1999.90;999.90;;;14.70;99.90;;;;;;5068678;28;20564;-83
2023/06/27 00:56:46;;;;;;;1999.90;999.90;;;14.70;99.90;;;;;;5055453;28;20489;-83
2023/06/27 00:59:12;;;;;;;1999.90;999.90;;;14.70;99.90;;;;;;5072115;28;20044;-84
2023/06/27 01:01:38;;;;;;;1999.90;999.90;;;14.70;99.90;;;;;;5070512;28;20053;-83
2023/06/27 01:04:04;;;;;;;1999.90;999.90;;;14.70;99.90;;;;;;5052545;28;20060;-88
2023/06/27 01:06:58;;;;;;;1999.90;999.90;;;14.60;99.90;;;;;;5073166;28;20051;-83
2023/06/27 01:09:36;;;;;;;1999.90;999.90;;;14.70;99.90;;;;;;5067817;28;20161;-83
2023/06/27 01:12:10;;;;;;;1999.90;999.90;;;14.60;99.90;;;;;;5079972;28;20499;-83
2023/06/27 01:14:38;;;;;;;1999.90;999.90;;;14.60;99.90;;;;;;5065741;28;20048;-83
2023/06/27 01:17:04;;;;;;;1999.90;999.90;;;14.60;99.90;;;;;;5070938;28;20146;-88
2023/06/27 01:19:31;;;;;;;1999.90;999.90;;;14.60;99.90;;;;;;5067075;28;20045;-83
2023/06/27 01:22:03;;;;;;;1999.90;999.90;;;14.60;99.90;;;;;;5104209;28;20124;-86
2023/06/27 01:24:29;;;;;;;1999.90;999.90;;;14.60;99.90;;;;;;5069982;28;20785;-84
2023/06/27 01:26:55;;;;;;;1999.90;999.90;;;14.60;99.90;;;;;;5070285;28;20048;-84
2023/06/27 01:29:21;;;;;;;1999.90;999.90;;;14.60;99.90;;;;;;5067622;28;20077;-83
2023/06/27 01:31:55;;;;;;;1999.90;999.90;;;14.60;99.90;;;;;;5069810;28;20044;-83
2023/06/27 01:34:41;;;;;;;1999.90;999.90;;;14.50;99.90;;;;;;5068275;28;20045;-83
2023/06/27 01:37:08;;;;;;;1999.90;999.90;;;14.50;99.90;;;;;;5101225;28;20048;-89
2023/06/27 01:39:46;;;;;;;;;;;14.50;99.90;;;;;;5070460;28;20116;-83
2023/06/27 01:42:17;;;;;;;1999.90;999.90;;;14.50;99.90;;;;;;5067202;28;19926;-83
2023/06/27 01:44:47;;;;;;;1999.90;999.90;;;14.50;99.90;;;;;;5070570;28;20496;-83
2023/06/27 01:47:14;;;;;;;1999.90;999.90;;;14.40;99.90;;;;;;5069416;28;20453;-83
2023/06/27 01:49:40;;;;;;;1999.90;999.90;;;14.40;99.90;;;;;;5069403;28;20052;-84
2023/06/27 01:52:09;;;;;;;1999.90;999.90;;;14.40;99.90;;;;;;5070881;28;20052;-83
2023/06/27 01:54:35;;;;;;;1999.90;999.90;;;14.40;99.90;;;;;;5066943;28;20048;-84
2023/06/27 01:57:01;;;;;;;1999.90;999.90;;;14.40;99.90;;;;;;5068915;28;20044;-84
2023/06/27 01:59:26;;;;;;;1999.90;999.90;;;14.40;99.90;;;;;;5066688;28;20143;-84
2023/06/27 02:01:52;;;;;;;1999.90;999.90;;;14.40;99.90;;;;;;5071552;28;20105;-84
2023/06/27 02:04:18;;;;;;;1999.90;999.90;;;14.30;99.90;;;;;;5085448;28;20045;-84
2023/06/27 02:06:44;;;;;;;1999.90;999.90;;;14.30;99.90;;;;;;5070271;28;20044;-83
2023/06/27 02:09:09;;;;;;;1999.90;999.90;;;14.30;99.90;;;;;;5068636;28;20065;-87
2023/06/27 02:11:35;;;;;;;1999.90;999.90;;;14.30;99.90;;;;;;5069600;28;20053;-83
2023/06/27 02:14:01;;;;;;;1999.90;999.90;;;14.30;99.90;;;;;;5069703;28;20511;-84
2023/06/27 02:16:26;;;;;;;1999.90;999.90;;;14.30;99.90;;;;;;5070239;28;20055;-82
2023/06/27 02:18:52;;;;;;;1999.90;999.90;;;14.20;99.90;;;;;;5054241;28;20048;-83
2023/06/27 02:21:18;;;;;;;1999.90;999.90;;;14.20;99.90;;;;;;5051401;28;20041;-82
2023/06/27 02:23:43;;;;;;;1999.90;999.90;;;14.10;99.90;;;;;;5071213;28;20539;-83
2023/06/27 02:26:10;;;;;;;1999.90;999.90;;;14.10;99.90;;;;;;5072017;28;20123;-83
2023/06/27 02:28:35;;;;;;;1999.90;999.90;;;14.10;99.90;;;;;;5071797;28;20507;-83
2023/06/27 02:31:01;;;;;;;1999.90;999.90;;;14.00;99.90;;;;;;5071022;28;20124;-82
2023/06/27 02:33:27;;;;;;;1999.90;999.90;;;14.00;99.90;;;;;;5106220;28;20485;-83
2023/06/27 02:35:52;;;;;;;1999.90;999.90;;;14.00;99.90;;;;;;5121934;28;20072;-82
2023/06/27 02:38:18;;;;;;;1999.90;999.90;;;14.00;99.90;;;;;;5092174;28;20028;-89
2023/06/27 02:40:44;;;;;;;1999.90;999.90;;;14.00;99.90;;;;;;5098673;28;20028;-87
2023/06/27 02:43:09;;;;;;;1999.90;999.90;;;13.90;99.90;;;;;;5093956;28;20076;-82
2023/06/27 02:45:36;;;;;;;1999.90;999.90;;;13.90;99.90;;;;;;5093265;28;20056;-83
2023/06/27 02:48:02;;;;;;;1999.90;999.90;;;13.80;99.90;;;;;;5093196;28;20048;-83
2023/06/27 02:50:27;;;;;;;1999.90;999.90;;;13.80;99.90;;;;;;5092765;28;20422;-84
2023/06/27 02:52:53;;;;;;;1999.90;999.90;;;13.80;99.90;;;;;;5091788;28;20045;-83
2023/06/27 02:55:19;;;;;;;1999.90;999.90;;;13.80;99.90;;;;;;5096061;28;20072;-88
2023/06/27 02:57:44;;;;;;;1999.90;999.90;;;13.80;99.90;;;;;;5091943;28;20130;-84
2023/06/27 03:00:11;;;;;;;1999.90;999.90;;;13.70;99.90;;;;;;5110495;28;20044;-86
2023/06/27 03:02:37;;;;;;;1999.90;999.90;;;13.70;1.00;;;;;;5093859;28;20092;-85
2023/06/27 03:05:03;;;;;;;1999.90;999.90;;;13.70;1.00;;;;;;5086198;28;20071;-85
2023/06/27 03:07:28;;;;;;;1999.90;999.90;;;13.70;1.00;;;;;;5076776;28;20045;-85
2023/06/27 03:09:54;;;;;;;1999.90;999.90;;;13.80;1.00;;;;;;5074524;28;20121;-84
2023/06/27 03:12:20;;;;;;;1999.90;999.90;;;13.70;1.00;;;;;;5071683;28;20413;-89
2023/06/27 03:14:45;;;;;;;1999.90;999.90;;;13.70;1.00;;;;;;5074910;28;20072;-84
2023/06/27 03:17:11;;;;;;;1999.90;999.90;;;13.80;1.00;;;;;;5072884;28;20048;-83
2023/06/27 03:19:37;;;;;;;1999.90;999.90;;;13.80;38.20;;;;;;5072737;28;20075;-84
2023/06/27 03:22:03;;;;;;;1999.90;999.90;;;13.80;1.00;;;;;;5071971;28;20070;-85
2023/06/27 03:24:31;;;;;;;1999.90;999.90;;;13.70;1.00;;;;;;5073951;28;20044;-84
2023/06/27 03:26:57;;;;;;;1999.90;999.90;;;13.70;1.00;;;;;;5074042;28;20531;-86
2023/06/27 03:29:23;;;;;;;1999.90;999.90;;;13.70;1.00;;;;;;5071309;28;20043;-84
2023/06/27 03:31:48;;;;;;;1999.90;999.90;;;13.70;1.00;;;;;;5041857;28;20574;-83
2023/06/27 03:34:14;;;;;;;1999.90;999.90;;;13.70;1.00;;;;;;5073889;28;20072;-84
2023/06/27 03:36:40;;;;;;;1999.90;999.90;;;13.60;1.00;;;;;;5055999;28;20060;-84
2023/06/27 03:39:06;;;;;;;1999.90;999.90;;;13.60;1.00;;;;;;5074624;28;20124;-84
2023/06/27 03:41:32;;;;;;;1999.90;999.90;;;13.60;1.00;;;;;;5090308;28;20059;-84
2023/06/27 03:43:57;;;;;;;1999.90;999.90;;;13.60;1.00;;;;;;5087398;28;20052;-83
2023/06/27 03:46:24;;;;;;;1999.90;999.90;;;13.60;1.00;;;;;;5072304;28;20044;-84
2023/06/27 03:48:54;;;;;;;1999.90;999.90;;;13.60;8.20;;;;;;5073005;28;20059;-84
2023/06/27 03:51:20;;;;;;;1999.90;999.90;;;13.80;99.90;;;;;;5072836;28;20287;-85
2023/06/27 03:53:45;;;;;;;1999.90;999.90;;;13.80;99.90;;;;;;5071524;28;20055;-84
2023/06/27 03:56:11;;;;;;;1999.90;999.90;;;13.80;99.90;;;;;;5069834;28;20132;-83
2023/06/27 03:58:37;;;;;;;1999.90;999.90;;;13.70;89.70;;;;;;5053327;28;20385;-84
2023/06/27 04:01:03;;;;;;;1999.90;999.90;;;13.70;95.50;;;;;;5037206;28;20102;-84
2023/06/27 04:03:28;;;;;;;1999.90;999.90;;;13.80;99.90;;;;;;5081591;28;20394;-84
2023/06/27 04:05:54;;;;;;;1999.90;999.90;;;13.70;91.80;;;;;;5066051;28;20114;-84
2023/06/27 04:08:20;;;;;;;1999.90;999.90;;;13.70;47.80;;;;;;5068341;28;20489;-84
2023/06/27 04:10:45;;;;;;;1999.90;999.90;;;13.70;26.70;;;;;;5059828;28;20098;-85
2023/06/27 04:13:11;;;;;;;1999.90;999.90;;;13.60;28.80;;;;;;5067264;28;20119;-84
2023/06/27 04:15:39;;;;;;;1999.90;999.90;;;13.60;24.60;;;;;;5103245;28;20764;-84
2023/06/27 04:18:08;;;;;;;1999.90;999.90;;;13.70;54.60;;;;;;5069302;28;20048;-84
2023/06/27 04:20:34;;;;;;;1999.90;999.90;;;13.70;97.50;;;;;;5071782;28;20389;-84
2023/06/27 04:23:00;;;;;;;1999.90;999.90;;;13.70;88.50;;;;;;5064287;28;20084;-87
2023/06/27 04:25:30;;;;;;;1999.90;999.90;;;13.70;82.90;;;;;;5068458;28;20497;-84
2023/06/27 04:27:56;;;;;;;1999.90;999.90;;;13.80;99.90;;;;;;5067967;28;20476;-85
2023/06/27 04:30:22;;;;;;;1999.90;999.90;;;13.80;99.90;;;;;;5065899;28;20097;-84
2023/06/27 04:32:50;;;;;;;1999.90;999.90;;;14.00;99.90;;;;;;5072124;28;20075;-87
2023/06/27 04:35:19;;;;;;;1999.90;999.90;;;14.00;99.90;;;;;;5068939;28;20496;-84
2023/06/27 04:37:46;;;;;;;1999.90;999.90;;;14.10;99.90;;;;;;5068936;28;20120;-85
2023/06/27 04:40:12;;;;;;;1999.90;999.90;;;14.10;99.90;;;;;;5072809;28;20041;-84
2023/06/27 04:42:38;;;;;;;1999.90;999.90;;;14.10;99.90;;;;;;5056347;28;20127;-84
2023/06/27 04:45:05;;;;;;;1999.90;999.90;;;14.20;99.90;;;;;;5053565;28;20040;-84
2023/06/27 04:47:32;;;;;;;1999.90;999.90;;;14.20;99.90;;;;;;5072950;28;20036;-86
2023/06/27 04:49:58;;;;;;;1999.90;999.90;;;14.30;99.90;;;;;;5073479;28;20091;-84
2023/06/27 04:52:24;;;;;;;1999.90;999.90;;;14.30;99.90;;;;;;5071357;28;20080;-84
2023/06/27 04:54:51;;;;;;;1999.90;999.90;;;14.40;99.90;;;;;;5083580;28;20048;-84
2023/06/27 04:57:17;;;;;;;1999.90;999.90;;;14.50;99.90;;;;;;5074666;28;20429;-83
2023/06/27 04:59:44;;;;;;;1999.90;999.90;;;14.40;99.90;;;;;;5102214;28;20341;-84
2023/06/27 05:02:09;;;;;;;1999.90;999.90;;;14.60;99.90;;;;;;5069957;28;20048;-84
2023/06/27 05:04:36;;;;;;;1999.90;999.90;;;14.60;99.90;;;;;;5071767;28;20121;-84
2023/06/27 05:07:04;;;;;;;1999.90;999.90;;;14.60;99.90;;;;;;5070746;28;20037;-85
2023/06/27 05:09:30;;;;;;;1999.90;999.90;;;14.70;99.90;;;;;;5069016;28;20135;-85
2023/06/27 05:11:56;;;;;;;1999.90;999.90;;;14.70;99.90;;;;;;5072778;28;20489;-85
2023/06/27 05:14:22;;;;;;;1999.90;999.90;;;14.80;99.90;;;;;;5051647;28;20101;-88
2023/06/27 05:16:48;;;;;;;1999.90;999.90;;;14.90;96.30;;;;;;5081157;28;20047;-90
2023/06/27 05:19:13;;;;;;;1999.90;999.90;;;15.00;92.20;;;;;;5072762;28;20048;-84
2023/06/27 05:21:39;;;;;;;1999.90;999.90;;;15.00;76.20;;;;;;5066353;28;20051;-84
2023/06/27 05:24:05;;;;;;;1999.90;999.90;;;15.10;1.30;;;;;;5068314;28;20041;-87
2023/06/27 05:26:34;;;;;;;1999.90;999.90;;;15.20;1.00;;;;;;5068441;28;20059;-86
2023/06/27 05:29:02;;;;;;;1999.90;999.90;;;15.20;1.00;;;;;;5069005;28;20480;-88
